San Diego, California
Current Conditions -  °F | °C
As of 7:51 AM on Wednesday 28 Jan 2015 (Local Time) from KSAN Reporting Station
Overcast Overcast  
Wind Chill: 58°   Ceiling: 25000
Heat Index: 58°   Visibility: 10mi
Dew Point: 47°   Wind: 0mph
Humidity: 67%   Direction: NA
Pressure: 30.13"   Gusts: NA
Location:  32.72°N, 117.16°W
Report Text: KSAN 281551Z 00000KT 10SM OVC250 14/08 A3013 RMK AO2 SLP203 T01440083
Loading
Personal Weather Stations






























Interactive Weather Map New forecast layout! Learn more

10-Day Weather Forecast

Advertisements
Track Severe Weather on mobile